createdAt,value
2018-09-06T00:01:21.867Z,100.00
2018-09-06T00:03:52.188Z,100.00
2018-09-06T00:06:23.146Z,100.00
2018-09-06T00:08:53.517Z,100.00
2018-09-06T00:11:24.016Z,100.00
2018-09-06T00:13:53.927Z,100.00
2018-09-06T00:16:24.095Z,100.00
2018-09-06T00:18:53.895Z,100.00
2018-09-06T00:21:25.132Z,100.00
2018-09-06T00:23:55.270Z,100.00
2018-09-06T00:26:29.579Z,100.00
2018-09-06T00:28:59.751Z,100.00
2018-09-06T00:31:34.520Z,100.00
2018-09-06T00:34:05.455Z,100.00
2018-09-06T00:36:37.161Z,100.00
2018-09-06T00:39:09.664Z,100.00
2018-09-06T00:41:42.085Z,100.00
2018-09-06T00:44:12.180Z,100.00
2018-09-06T00:46:44.094Z,100.00
2018-09-06T00:49:15.377Z,100.00
2018-09-06T00:51:48.218Z,100.00
2018-09-06T00:54:19.344Z,100.00
2018-09-06T00:56:49.153Z,100.00
2018-09-06T00:59:22.844Z,100.00
2018-09-06T01:01:52.759Z,100.00
2018-09-06T01:04:23.426Z,100.00
2018-09-06T01:06:53.378Z,100.00
2018-09-06T01:09:23.644Z,100.00
2018-09-06T01:11:55.759Z,100.00
2018-09-06T01:14:27.934Z,100.00
2018-09-06T01:16:58.984Z,100.00
2018-09-06T01:19:29.133Z,100.00
2018-09-06T01:21:59.367Z,100.00
2018-09-06T01:24:29.548Z,100.00
2018-09-06T01:26:59.812Z,100.00
2018-09-06T01:29:29.840Z,100.00
2018-09-06T01:32:01.145Z,100.00
2018-09-06T01:34:31.447Z,100.00
2018-09-06T01:37:06.649Z,100.00
2018-09-06T01:39:37.363Z,100.00
2018-09-06T01:42:09.037Z,100.00
2018-09-06T01:44:41.724Z,100.00
2018-09-06T01:47:12.873Z,100.00
2018-09-06T01:49:43.186Z,100.00
2018-09-06T01:52:13.071Z,100.00
2018-09-06T01:54:42.842Z,100.00
2018-09-06T01:57:12.596Z,100.00
2018-09-06T01:59:42.362Z,100.00
2018-09-06T02:02:12.051Z,100.00
2018-09-06T02:04:41.948Z,100.00
2018-09-06T02:07:11.757Z,100.00
2018-09-06T02:09:42.009Z,100.00
2018-09-06T02:12:12.456Z,100.00
2018-09-06T02:14:43.912Z,100.00
2018-09-06T02:17:15.798Z,100.00
2018-09-06T02:19:45.501Z,100.00
2018-09-06T02:22:15.270Z,100.00
2018-09-06T02:24:45.555Z,100.00
2018-09-06T02:27:15.351Z,100.00
2018-09-06T02:29:45.087Z,100.00
2018-09-06T02:32:14.877Z,100.00
2018-09-06T02:34:44.581Z,100.00
2018-09-06T02:37:14.277Z,100.00
2018-09-06T02:39:44.094Z,100.00
2018-09-06T02:42:13.839Z,100.00
2018-09-06T02:44:43.646Z,100.00
2018-09-06T02:47:13.345Z,100.00
2018-09-06T02:49:48.230Z,100.00
2018-09-06T02:52:20.190Z,100.00
2018-09-06T02:54:49.919Z,100.00
2018-09-06T02:57:21.017Z,100.00
2018-09-06T02:59:50.725Z,100.00
2018-09-06T03:02:20.445Z,100.00
2018-09-06T03:04:51.136Z,100.00
2018-09-06T03:07:21.414Z,100.00
2018-09-06T03:09:54.393Z,100.00
2018-09-06T03:12:25.476Z,100.00
2018-09-06T03:14:55.729Z,100.00
2018-09-06T03:17:27.107Z,100.00
2018-09-06T03:19:57.262Z,100.00
2018-09-06T03:22:27.531Z,100.00
2018-09-06T03:24:57.695Z,100.00
2018-09-06T03:27:27.752Z,100.00
2018-09-06T03:29:57.972Z,100.00
2018-09-06T03:32:29.697Z,100.00
2018-09-06T03:34:59.880Z,100.00
2018-09-06T03:37:30.023Z,100.00
2018-09-06T03:40:00.373Z,100.00
2018-09-06T03:42:30.593Z,100.00
2018-09-06T03:45:00.858Z,100.00
2018-09-06T03:47:31.126Z,100.00
2018-09-06T03:50:01.423Z,100.00
2018-09-06T03:52:32.751Z,100.00
2018-09-06T03:55:03.235Z,100.00
2018-09-06T03:57:34.423Z,100.00
2018-09-06T04:00:04.940Z,100.00
2018-09-06T04:02:35.062Z,100.00
2018-09-06T04:05:05.255Z,100.00
2018-09-06T04:07:35.524Z,100.00
2018-09-06T04:10:07.595Z,100.00
2018-09-06T04:12:39.266Z,100.00
2018-09-06T04:15:10.007Z,100.00
2018-09-06T04:17:41.585Z,100.00
2018-09-06T04:20:11.960Z,100.00
2018-09-06T04:22:45.845Z,100.00
2018-09-06T04:25:16.819Z,100.00
2018-09-06T04:27:47.320Z,100.00
2018-09-06T04:30:17.944Z,100.00
2018-09-06T04:32:48.439Z,100.00
2018-09-06T04:35:18.942Z,100.00
2018-09-06T04:37:51.201Z,100.00
2018-09-06T04:40:22.119Z,100.00
2018-09-06T04:42:52.484Z,100.00
2018-09-06T04:45:22.574Z,100.00
2018-09-06T04:47:52.806Z,100.00
2018-09-06T04:50:23.323Z,100.00
2018-09-06T04:52:55.998Z,100.00
2018-09-06T04:55:26.188Z,100.00
2018-09-06T04:57:56.415Z,100.00
2018-09-06T05:00:26.368Z,100.00
2018-09-06T05:02:57.585Z,100.00
2018-09-06T05:05:27.770Z,100.00
2018-09-06T05:07:58.520Z,99.65
2018-09-06T05:10:28.739Z,100.00
2018-09-06T05:12:58.937Z,100.00
2018-09-06T05:15:29.088Z,99.90
2018-09-06T05:17:59.261Z,99.65
2018-09-06T05:20:30.354Z,100.00
2018-09-06T05:23:01.251Z,98.75
2018-09-06T05:25:31.568Z,99.92
2018-09-06T05:28:01.583Z,99.53
2018-09-06T05:30:32.407Z,99.33
2018-09-06T05:33:03.198Z,99.74
2018-09-06T05:35:34.726Z,99.18
2018-09-06T05:38:04.955Z,98.04
2018-09-06T05:40:34.983Z,98.55
2018-09-06T05:43:06.542Z,98.82
2018-09-06T05:45:36.555Z,97.47
2018-09-06T05:48:09.135Z,95.87
2018-09-06T05:50:40.085Z,94.09
2018-09-06T05:53:10.681Z,94.09
2018-09-06T05:55:41.210Z,92.15
2018-09-06T05:58:11.660Z,94.29
2018-09-06T06:00:44.825Z,94.27
2018-09-06T06:03:16.144Z,93.41
2018-09-06T06:05:46.760Z,91.88
2018-09-06T06:08:27.680Z,92.38
2018-09-06T06:10:57.981Z,91.33
2018-09-06T06:13:30.222Z,94.21
2018-09-06T06:16:01.074Z,92.67
2018-09-06T06:18:32.044Z,92.56
2018-09-06T06:21:03.004Z,91.81
2018-09-06T06:23:33.583Z,92.05
2018-09-06T06:26:04.146Z,89.64
2018-09-06T06:28:34.960Z,88.06
2018-09-06T06:31:05.209Z,89.14
2018-09-06T06:33:35.680Z,91.04
2018-09-06T06:36:05.888Z,88.60
2018-09-06T06:38:36.143Z,85.08
2018-09-06T06:41:06.389Z,79.35
2018-09-06T06:43:37.062Z,64.52
2018-09-06T06:46:07.187Z,62.42
2018-09-06T06:48:37.504Z,59.20
2018-09-06T06:51:08.577Z,58.17
2018-09-06T06:53:38.723Z,54.28
2018-09-06T06:56:10.048Z,53.80
2018-09-06T06:58:41.995Z,58.36
2018-09-06T07:01:12.381Z,56.33
2018-09-06T07:03:42.605Z,56.28
2018-09-06T07:06:13.031Z,53.54
2018-09-06T07:08:43.428Z,53.24
2018-09-06T07:11:13.904Z,52.26
2018-09-06T07:13:43.963Z,54.48
2018-09-06T07:16:14.279Z,58.32
2018-09-06T07:18:44.768Z,60.78
2018-09-06T07:21:14.901Z,62.84
2018-09-06T07:23:45.292Z,66.29
2018-09-06T07:26:15.577Z,66.39
2018-09-06T07:28:45.652Z,67.05
2018-09-06T07:31:15.832Z,67.59
2018-09-06T07:33:46.888Z,67.73
2018-09-06T07:36:17.114Z,68.10
2018-09-06T07:38:47.294Z,67.01
2018-09-06T07:41:17.990Z,67.26
2018-09-06T07:43:49.062Z,70.64
2018-09-06T07:46:19.334Z,72.54
2018-09-06T07:48:49.375Z,68.98
2018-09-06T07:51:20.430Z,70.90
2018-09-06T07:53:52.245Z,71.49
2018-09-06T07:56:23.266Z,70.84
2018-09-06T07:58:53.716Z,70.72
2018-09-06T08:01:24.330Z,68.82
2018-09-06T08:03:54.734Z,70.15
2018-09-06T08:06:25.000Z,69.69
2018-09-06T08:08:57.288Z,69.68
2018-09-06T08:11:27.535Z,69.55
2018-09-06T08:13:57.570Z,70.76
2018-09-06T08:16:27.743Z,70.79
2018-09-06T08:18:58.835Z,69.67
2018-09-06T08:21:29.059Z,69.52
2018-09-06T08:23:59.258Z,68.68
2018-09-06T08:26:29.551Z,68.48
2018-09-06T08:28:59.817Z,67.50
2018-09-06T08:31:31.194Z,67.17
2018-09-06T08:34:01.518Z,67.73
2018-09-06T08:36:32.283Z,69.53
2018-09-06T08:39:03.405Z,67.98
2018-09-06T08:41:33.512Z,66.48
2018-09-06T08:44:03.776Z,65.04
2018-09-06T08:46:33.806Z,65.97
2018-09-06T08:49:04.798Z,67.48
2018-09-06T08:51:35.018Z,67.85
2018-09-06T08:54:06.062Z,65.98
2018-09-06T08:56:36.367Z,65.13
2018-09-06T08:59:06.711Z,64.93
2018-09-06T09:01:42.427Z,66.57
2018-09-06T09:04:12.688Z,64.97
2018-09-06T09:06:42.836Z,61.75
2018-09-06T09:09:15.267Z,61.94
2018-09-06T09:11:45.779Z,62.74
2018-09-06T09:14:17.220Z,62.75
2018-09-06T09:16:48.422Z,63.02
2018-09-06T09:19:18.686Z,63.29
2018-09-06T09:21:49.180Z,62.17
2018-09-06T09:24:20.028Z,61.17
2018-09-06T09:26:51.268Z,63.17
2018-09-06T09:29:22.253Z,65.29
2018-09-06T09:31:52.721Z,61.95
2018-09-06T09:34:23.119Z,60.35
2018-09-06T09:36:53.677Z,59.96
2018-09-06T09:39:27.023Z,59.87
2018-09-06T09:41:57.456Z,60.78
2018-09-06T09:44:28.908Z,61.17
2018-09-06T09:49:31.550Z,60.95
2018-09-06T09:52:01.817Z,62.42
2018-09-06T09:54:33.636Z,60.66
2018-09-06T09:57:04.236Z,60.91
2018-09-06T09:59:35.957Z,60.71
2018-09-06T10:02:11.158Z,62.04
2018-09-06T10:05:46.518Z,61.16
2018-09-06T10:08:21.661Z,60.92
2018-09-06T10:10:52.711Z,60.52
2018-09-06T10:13:23.202Z,61.56
2018-09-06T10:15:53.974Z,62.75
2018-09-06T10:18:24.484Z,62.14
2018-09-06T10:20:54.875Z,60.79
2018-09-06T10:23:25.296Z,61.26
2018-09-06T10:25:56.191Z,59.45
2018-09-06T10:28:26.879Z,61.60
2018-09-06T10:30:57.372Z,63.71
2018-09-06T10:33:27.965Z,63.64
2018-09-06T10:35:58.523Z,63.61
2018-09-06T10:38:30.340Z,65.35
2018-09-06T10:41:01.068Z,65.74
2018-09-06T10:43:31.264Z,67.04
2018-09-06T10:46:01.886Z,64.25
2018-09-06T10:48:32.172Z,65.46
2018-09-06T10:51:02.623Z,64.90
2018-09-06T10:53:33.594Z,65.53
2018-09-06T10:56:04.297Z,67.79
2018-09-06T10:58:35.198Z,63.37
2018-09-06T11:01:11.252Z,62.52
2018-09-06T11:03:41.858Z,61.77
2018-09-06T11:06:12.574Z,61.17
2018-09-06T11:13:33.856Z,58.80
2018-09-06T11:16:04.272Z,60.03
2018-09-06T11:18:34.429Z,59.53
2018-09-06T11:21:05.873Z,60.45
2018-09-06T11:23:36.327Z,61.64
2018-09-06T11:26:06.713Z,60.17
2018-09-06T11:28:36.931Z,58.04
2018-09-06T11:31:07.785Z,55.66
2018-09-06T11:33:38.301Z,55.83
2018-09-06T11:36:08.901Z,55.62
2018-09-06T11:38:39.525Z,54.83
2018-09-06T11:41:09.716Z,54.08
2018-09-06T11:43:41.951Z,54.21
2018-09-06T11:46:12.392Z,54.40
2018-09-06T11:48:43.591Z,55.89
2018-09-06T11:51:14.041Z,55.70
2018-09-06T11:53:44.324Z,53.92
2018-09-06T11:56:14.419Z,53.31
2018-09-06T11:58:45.144Z,52.24
2018-09-06T12:01:16.220Z,51.38
2018-09-06T12:03:46.889Z,52.33
2018-09-06T12:06:17.079Z,50.71
2018-09-06T12:08:51.419Z,51.18
2018-09-06T12:11:21.584Z,51.76
2018-09-06T12:13:52.123Z,52.20
2018-09-06T12:16:22.456Z,53.91
2018-09-06T12:18:52.965Z,53.16
2018-09-06T12:21:23.718Z,53.46
2018-09-06T12:23:55.002Z,52.18
2018-09-06T12:26:25.578Z,51.73
2018-09-06T12:28:56.107Z,53.29
2018-09-06T12:31:27.258Z,52.85
2018-09-06T12:33:57.858Z,51.37
2018-09-06T12:36:28.439Z,52.52
2018-09-06T12:38:59.378Z,53.21
2018-09-06T12:41:30.671Z,52.41
2018-09-06T12:44:03.920Z,51.79
2018-09-06T12:46:34.433Z,51.11
2018-09-06T12:49:04.750Z,52.04
2018-09-06T12:51:35.253Z,51.00
2018-09-06T12:54:05.680Z,52.32
2018-09-06T12:56:36.531Z,52.32
2018-09-06T12:59:07.635Z,51.75
2018-09-06T13:01:38.001Z,51.49
2018-09-06T13:04:08.744Z,52.86
2018-09-06T13:06:39.174Z,53.23
2018-09-06T13:09:10.723Z,53.01
2018-09-06T13:11:43.046Z,54.27
2018-09-06T13:14:14.977Z,52.97
2018-09-06T13:16:45.482Z,54.23
2018-09-06T13:19:17.427Z,56.95
2018-09-06T13:21:47.904Z,59.10
2018-09-06T13:24:18.310Z,59.47
2018-09-06T13:26:49.243Z,59.52
2018-09-06T13:29:19.531Z,60.90
2018-09-06T13:31:51.341Z,59.64
2018-09-06T13:34:21.517Z,59.85
2018-09-06T13:36:52.206Z,61.88
2018-09-06T13:39:22.766Z,64.09
2018-09-06T13:41:53.251Z,64.49
2018-09-06T13:44:23.736Z,64.86
2018-09-06T13:46:54.221Z,63.60
2018-09-06T13:49:25.489Z,60.89
2018-09-06T13:51:55.912Z,59.48
2018-09-06T13:54:26.295Z,59.98
2018-09-06T13:56:57.499Z,59.60
2018-09-06T13:59:27.981Z,57.89
2018-09-06T14:01:58.249Z,57.06
2018-09-06T14:04:28.787Z,57.05
2018-09-06T14:06:59.140Z,57.30
2018-09-06T14:09:29.686Z,56.72
2018-09-06T14:12:00.280Z,56.85
2018-09-06T14:14:32.641Z,57.70
2018-09-06T14:17:04.064Z,56.37
2018-09-06T14:19:35.640Z,55.66
2018-09-06T14:22:06.062Z,53.52
2018-09-06T14:24:36.562Z,54.56
2018-09-06T14:27:07.184Z,53.73
2018-09-06T14:29:38.187Z,55.07
2018-09-06T14:32:08.715Z,54.99
2018-09-06T14:34:40.008Z,55.72
2018-09-06T14:37:11.657Z,55.88
2018-09-06T14:39:42.776Z,55.93
2018-09-06T14:42:14.007Z,56.30
2018-09-06T14:44:44.959Z,54.96
2018-09-06T14:47:16.643Z,55.25
2018-09-06T14:49:47.473Z,55.27
2018-09-06T14:52:18.573Z,54.93
2018-09-06T14:54:49.664Z,55.54
2018-09-06T14:57:19.975Z,55.90
2018-09-06T14:59:51.901Z,57.10
2018-09-06T15:02:22.428Z,57.94
2018-09-06T15:04:53.384Z,58.43
2018-09-06T15:07:23.552Z,59.43
2018-09-06T15:09:53.999Z,62.64
2018-09-06T15:12:24.456Z,64.88
2018-09-06T15:14:54.906Z,68.16
2018-09-06T15:17:25.301Z,69.67
2018-09-06T15:19:57.678Z,71.47
2018-09-06T15:22:28.745Z,73.73
2018-09-06T15:24:59.886Z,75.91
2018-09-06T15:27:30.936Z,78.06
2018-09-06T15:30:01.503Z,79.42
2018-09-06T15:32:32.232Z,79.62
2018-09-06T15:35:03.439Z,79.83
2018-09-06T15:37:33.910Z,79.56
2018-09-06T15:40:04.721Z,80.23
2018-09-06T15:42:35.205Z,81.73
2018-09-06T15:45:06.352Z,80.33
2018-09-06T15:47:38.596Z,80.68
2018-09-06T15:50:09.726Z,81.13
2018-09-06T15:52:40.020Z,80.92
2018-09-06T15:55:12.285Z,81.24
2018-09-06T15:57:42.605Z,80.74
2018-09-06T16:00:13.288Z,80.91
2018-09-06T16:02:44.507Z,80.70
2018-09-06T16:05:15.785Z,80.93
2018-09-06T16:07:46.453Z,80.76
2018-09-06T16:10:18.613Z,81.64
2018-09-06T16:12:49.543Z,81.21
2018-09-06T16:15:20.106Z,80.66
2018-09-06T16:17:50.449Z,81.14
2018-09-06T16:20:20.881Z,80.70
2018-09-06T16:22:55.477Z,80.37
2018-09-06T16:25:26.680Z,79.67
2018-09-06T16:27:57.096Z,79.95
2018-09-06T16:30:28.115Z,80.02
2018-09-06T16:32:58.412Z,79.43
2018-09-06T16:35:29.409Z,78.52
2018-09-06T16:38:00.071Z,77.77
2018-09-06T16:40:37.731Z,77.45
2018-09-06T16:43:08.321Z,76.88
2018-09-06T16:45:39.625Z,76.58
2018-09-06T16:48:09.966Z,76.04
2018-09-06T16:50:41.236Z,76.03
2018-09-06T16:53:12.396Z,75.58
2018-09-06T16:55:42.825Z,75.24
2018-09-06T16:58:14.066Z,75.17
2018-09-06T17:00:44.733Z,74.68
2018-09-06T17:03:18.571Z,74.15
2018-09-06T17:05:49.070Z,74.49
2018-09-06T17:08:20.169Z,73.95
2018-09-06T17:10:50.390Z,73.33
2018-09-06T17:13:21.398Z,72.17
2018-09-06T17:15:54.043Z,72.80
2018-09-06T17:18:24.255Z,72.00
2018-09-06T17:20:54.746Z,72.50
2018-09-06T17:23:25.306Z,73.36
2018-09-06T17:25:55.625Z,74.22
2018-09-06T17:28:26.929Z,73.71
2018-09-06T17:30:58.488Z,73.36
2018-09-06T17:33:28.460Z,73.50
2018-09-06T17:35:59.498Z,72.97
2018-09-06T17:38:29.592Z,72.54
2018-09-06T17:40:59.929Z,72.09
2018-09-06T17:43:30.372Z,72.85
2018-09-06T17:46:02.325Z,72.14
2018-09-06T17:48:32.761Z,72.08
2018-09-06T17:51:02.951Z,72.58
2018-09-06T17:53:33.368Z,71.59
2018-09-06T17:56:04.348Z,72.74
2018-09-06T17:58:35.411Z,73.45
2018-09-06T18:01:44.491Z,73.79
2018-09-06T18:04:14.628Z,74.53
2018-09-06T18:06:44.954Z,75.06
2018-09-06T18:09:15.364Z,75.67
2018-09-06T18:11:45.619Z,75.78
2018-09-06T18:14:16.057Z,76.06
2018-09-06T18:16:47.026Z,76.35
2018-09-06T18:19:17.296Z,76.82
2018-09-06T18:21:47.437Z,77.30
2018-09-06T18:24:18.127Z,77.51
2018-09-06T18:26:48.450Z,79.11
2018-09-06T18:29:19.044Z,79.81
2018-09-06T18:31:49.683Z,79.54
2018-09-06T18:34:20.201Z,78.09
2018-09-06T18:36:50.392Z,78.54
2018-09-06T18:39:22.490Z,79.11
2018-09-06T18:41:53.686Z,79.54
2018-09-06T18:44:23.833Z,79.75
2018-09-06T18:46:54.068Z,80.28
2018-09-06T18:49:24.358Z,80.54
2018-09-06T18:51:54.931Z,80.12
2018-09-06T18:54:25.995Z,81.18
2018-09-06T18:56:56.245Z,80.98
2018-09-06T18:59:27.683Z,81.52
2018-09-06T19:01:58.126Z,80.60
2018-09-06T19:04:29.327Z,80.52
2018-09-06T19:06:59.455Z,79.56
2018-09-06T19:09:29.503Z,80.56
2018-09-06T19:12:00.600Z,80.27
2018-09-06T19:14:31.378Z,80.24
2018-09-06T19:17:02.948Z,82.55
2018-09-06T19:19:33.252Z,80.58
2018-09-06T19:22:03.572Z,81.23
2018-09-06T19:24:34.148Z,78.81
2018-09-06T19:27:04.320Z,78.41
2018-09-06T19:29:34.332Z,77.33
2018-09-06T19:32:04.756Z,78.55
2018-09-06T19:34:35.878Z,79.21
2018-09-06T19:37:06.208Z,77.61
2018-09-06T19:39:37.482Z,76.51
2018-09-06T19:42:19.338Z,75.60
2018-09-06T19:44:50.096Z,75.20
2018-09-06T19:47:22.252Z,76.25
2018-09-06T19:49:53.823Z,75.22
2018-09-06T19:52:25.014Z,74.91
2018-09-06T19:54:55.665Z,73.99
2018-09-06T19:57:28.158Z,73.79
2018-09-06T20:00:02.778Z,73.23
2018-09-06T20:02:39.390Z,74.06
2018-09-06T20:05:15.630Z,73.48
2018-09-06T20:07:46.802Z,73.39
2018-09-06T20:10:16.966Z,72.75
2018-09-06T20:12:48.538Z,73.45
2018-09-06T20:15:18.888Z,73.45
2018-09-06T20:17:51.228Z,72.68
2018-09-06T20:20:21.605Z,73.57
2018-09-06T20:22:52.156Z,74.06
2018-09-06T20:25:28.919Z,74.15
2018-09-06T20:27:59.413Z,73.74
2018-09-06T20:30:29.601Z,74.78
2018-09-06T20:33:01.920Z,74.54
2018-09-06T20:35:32.990Z,74.26
2018-09-06T20:38:03.265Z,74.74
2018-09-06T20:40:33.409Z,74.14
2018-09-06T20:43:03.813Z,74.34
2018-09-06T20:45:41.880Z,74.88
2018-09-06T20:48:12.420Z,74.07
2018-09-06T20:50:44.012Z,74.72
2018-09-06T20:53:30.920Z,74.37
2018-09-06T20:56:01.150Z,74.30
2018-09-06T20:58:31.549Z,74.41
2018-09-06T21:03:38.912Z,74.36
2018-09-06T21:06:14.313Z,74.57
2018-09-06T21:08:44.627Z,74.60
2018-09-06T21:11:17.089Z,74.80
2018-09-06T21:13:47.152Z,74.68
2018-09-06T21:16:17.423Z,75.35
2018-09-06T21:18:47.382Z,74.08
2018-09-06T21:21:17.600Z,74.78
2018-09-06T21:23:48.104Z,75.40
2018-09-06T21:26:18.476Z,75.49
2018-09-06T21:28:49.063Z,75.21
2018-09-06T21:31:19.043Z,75.83
2018-09-06T21:33:49.332Z,75.61
2018-09-06T21:36:20.462Z,76.16
2018-09-06T21:38:50.590Z,76.78
2018-09-06T21:41:20.689Z,76.18
2018-09-06T21:43:50.577Z,76.75
2018-09-06T21:46:21.126Z,76.13
2018-09-06T21:48:51.419Z,75.71
2018-09-06T21:51:21.667Z,76.25
2018-09-06T21:53:51.829Z,76.12
2018-09-06T21:56:22.201Z,76.47
2018-09-06T21:58:53.527Z,76.11
2018-09-06T22:01:26.152Z,77.19
2018-09-06T22:04:05.825Z,76.55
2018-09-06T22:06:37.737Z,76.57
2018-09-06T22:09:12.996Z,76.52
2018-09-06T22:11:43.799Z,77.09
2018-09-06T22:14:13.895Z,76.47
2018-09-06T22:16:45.353Z,77.13
2018-09-06T22:19:17.724Z,76.67
2018-09-06T22:21:48.275Z,76.56
2018-09-06T22:24:18.804Z,76.51
2018-09-06T22:26:49.717Z,76.75
2018-09-06T22:29:21.240Z,76.98
2018-09-06T22:38:41.727Z,78.44
2018-09-06T22:41:12.141Z,78.17
2018-09-06T22:43:43.123Z,78.88
2018-09-06T22:46:13.504Z,78.67
2018-09-06T22:48:45.298Z,79.29
2018-09-06T22:51:16.730Z,79.01
2018-09-06T22:53:47.406Z,79.52
2018-09-06T22:56:18.275Z,79.82
2018-09-06T22:58:49.602Z,79.93
2018-09-06T23:01:20.084Z,80.17
2018-09-06T23:03:54.297Z,80.15
2018-09-06T23:06:25.464Z,80.14
2018-09-06T23:08:56.529Z,80.95
2018-09-06T23:11:28.564Z,81.25
2018-09-06T23:13:59.827Z,81.55
2018-09-06T23:16:30.734Z,81.65
2018-09-06T23:19:03.337Z,81.57
2018-09-06T23:21:34.027Z,82.14
2018-09-06T23:24:04.696Z,82.50
2018-09-06T23:26:35.079Z,82.73
2018-09-06T23:29:07.788Z,83.41
2018-09-06T23:31:37.838Z,83.25
2018-09-06T23:34:07.846Z,83.50
2018-09-06T23:36:38.944Z,83.63
2018-09-06T23:39:10.428Z,84.15
2018-09-06T23:41:40.705Z,84.18
2018-09-06T23:44:10.786Z,83.71
2018-09-06T23:46:41.019Z,84.17
2018-09-06T23:49:11.416Z,84.05
2018-09-06T23:51:41.314Z,84.51
2018-09-06T23:54:12.255Z,84.62
2018-09-06T23:56:43.265Z,84.85
2018-09-06T23:59:16.494Z,84.97
